sensor_id;sensor_type;location;lat;lon;timestamp;pressure;altitude;pressure_sealevel;temperature;humidity
59877;BME280;45749;51.140;17.184;2023-03-25T00:02:24;99072.78;;;10.40;81.81
59877;BME280;45749;51.140;17.184;2023-03-25T00:04:52;99077.41;;;10.38;82.07
59877;BME280;45749;51.140;17.184;2023-03-25T00:07:19;99077.41;;;10.38;82.03
59877;BME280;45749;51.140;17.184;2023-03-25T00:09:45;99074.22;;;10.34;81.79
59877;BME280;45749;51.140;17.184;2023-03-25T00:12:12;99075.03;;;10.35;81.99
59877;BME280;45749;51.140;17.184;2023-03-25T00:14:38;99071.69;;;10.32;81.83
59877;BME280;45749;51.140;17.184;2023-03-25T00:17:03;99068.38;;;10.30;81.70
59877;BME280;45749;51.140;17.184;2023-03-25T00:19:31;99077.25;;;10.29;81.69
59877;BME280;45749;51.140;17.184;2023-03-25T00:21:58;99073.66;;;10.30;82.07
59877;BME280;45749;51.140;17.184;2023-03-25T00:24:23;99069.06;;;10.32;81.78
59877;BME280;45749;51.140;17.184;2023-03-25T00:26:48;99072.53;;;10.33;82.24
59877;BME280;45749;51.140;17.184;2023-03-25T00:29:15;99064.63;;;10.33;81.95
59877;BME280;45749;51.140;17.184;2023-03-25T00:31:41;99056.16;;;10.29;81.41
59877;BME280;45749;51.140;17.184;2023-03-25T00:34:07;99048.41;;;10.28;81.72
59877;BME280;45749;51.140;17.184;2023-03-25T00:36:33;99052.69;;;10.29;81.56
59877;BME280;45749;51.140;17.184;2023-03-25T00:39:03;99048.41;;;10.28;81.40
59877;BME280;45749;51.140;17.184;2023-03-25T00:41:29;99045.88;;;10.26;81.88
59877;BME280;45749;51.140;17.184;2023-03-25T00:43:56;99046.00;;;10.25;81.34
59877;BME280;45749;51.140;17.184;2023-03-25T00:46:24;99039.22;;;10.22;81.53
59877;BME280;45749;51.140;17.184;2023-03-25T00:48:52;99040.91;;;10.23;81.45
59877;BME280;45749;51.140;17.184;2023-03-25T00:51:18;99052.28;;;10.24;81.43
59877;BME280;45749;51.140;17.184;2023-03-25T00:53:46;99049.75;;;10.22;81.30
59877;BME280;45749;51.140;17.184;2023-03-25T00:56:12;99048.09;;;10.21;81.14
59877;BME280;45749;51.140;17.184;2023-03-25T00:58:38;99049.09;;;10.20;81.06
59877;BME280;45749;51.140;17.184;2023-03-25T01:01:10;99057.00;;;10.20;81.04
59877;BME280;45749;51.140;17.184;2023-03-25T01:03:38;99053.38;;;10.21;81.47
59877;BME280;45749;51.140;17.184;2023-03-25T01:06:08;99053.50;;;10.20;81.26
59877;BME280;45749;51.140;17.184;2023-03-25T01:08:33;99056.28;;;10.18;81.17
59877;BME280;45749;51.140;17.184;2023-03-25T01:10:59;99056.56;;;10.15;81.10
59877;BME280;45749;51.140;17.184;2023-03-25T01:13:24;99058.38;;;10.15;81.45
59877;BME280;45749;51.140;17.184;2023-03-25T01:15:50;99046.19;;;10.14;81.38
59877;BME280;45749;51.140;17.184;2023-03-25T01:18:15;99046.28;;;10.12;81.22
59877;BME280;45749;51.140;17.184;2023-03-25T01:20:41;99044.22;;;10.16;81.29
59877;BME280;45749;51.140;17.184;2023-03-25T01:23:07;99043.22;;;10.17;81.01
59877;BME280;45749;51.140;17.184;2023-03-25T01:25:34;99044.22;;;10.16;81.10
59877;BME280;45749;51.140;17.184;2023-03-25T01:28:00;99038.13;;;10.15;81.37
59877;BME280;45749;51.140;17.184;2023-03-25T01:30:25;99038.25;;;10.14;81.37
59877;BME280;45749;51.140;17.184;2023-03-25T01:32:51;99027.84;;;10.12;81.19
59877;BME280;45749;51.140;17.184;2023-03-25T01:35:16;99036.19;;;10.07;81.13
59877;BME280;45749;51.140;17.184;2023-03-25T01:37:42;99038.94;;;10.06;81.17
59877;BME280;45749;51.140;17.184;2023-03-25T01:40:16;99034.09;;;10.01;81.39
59877;BME280;45749;51.140;17.184;2023-03-25T01:42:42;99031.75;;;9.98;81.47
59877;BME280;45749;51.140;17.184;2023-03-25T01:45:22;99027.56;;;9.96;81.44
59877;BME280;45749;51.140;17.184;2023-03-25T01:47:53;99021.63;;;9.94;81.30
59877;BME280;45749;51.140;17.184;2023-03-25T01:50:20;99019.28;;;9.91;81.30
59877;BME280;45749;51.140;17.184;2023-03-25T01:52:49;99014.94;;;9.90;81.51
59877;BME280;45749;51.140;17.184;2023-03-25T01:55:16;99021.19;;;9.89;81.58
59877;BME280;45749;51.140;17.184;2023-03-25T01:57:42;99010.94;;;9.85;81.59
59877;BME280;45749;51.140;17.184;2023-03-25T02:00:12;99006.78;;;9.83;81.48
59877;BME280;45749;51.140;17.184;2023-03-25T02:02:40;99009.56;;;9.81;81.74
59877;BME280;45749;51.140;17.184;2023-03-25T02:05:27;99008.03;;;9.79;81.61
59877;BME280;45749;51.140;17.184;2023-03-25T02:07:55;98998.59;;;9.76;81.72
59877;BME280;45749;51.140;17.184;2023-03-25T02:10:22;98992.66;;;9.74;81.70
59877;BME280;45749;51.140;17.184;2023-03-25T02:12:47;98993.59;;;9.73;81.58
59877;BME280;45749;51.140;17.184;2023-03-25T02:15:15;98996.38;;;9.72;81.71
59877;BME280;45749;51.140;17.184;2023-03-25T02:18:18;98991.22;;;9.70;81.89
59877;BME280;45749;51.140;17.184;2023-03-25T02:40:25;98989.44;;;9.51;82.08
59877;BME280;45749;51.140;17.184;2023-03-25T02:42:58;98982.63;;;9.49;81.85
59877;BME280;45749;51.140;17.184;2023-03-25T02:45:30;98989.44;;;9.51;81.79
59877;BME280;45749;51.140;17.184;2023-03-25T02:48:07;98994.81;;;9.50;81.40
59877;BME280;45749;51.140;17.184;2023-03-25T02:50:42;98984.56;;;9.47;81.60
59877;BME280;45749;51.140;17.184;2023-03-25T02:53:14;98987.34;;;9.45;81.57
59877;BME280;45749;51.140;17.184;2023-03-25T02:55:44;98988.28;;;9.44;81.56
59877;BME280;45749;51.140;17.184;2023-03-25T02:58:12;98990.38;;;9.40;81.72
59877;BME280;45749;51.140;17.184;2023-03-25T03:00:41;99000.34;;;9.37;81.71
59877;BME280;45749;51.140;17.184;2023-03-25T03:03:07;98997.88;;;9.35;81.90
59877;BME280;45749;51.140;17.184;2023-03-25T03:05:41;98997.16;;;9.33;82.06
59877;BME280;45749;51.140;17.184;2023-03-25T03:11:14;99000.06;;;9.30;81.94
59877;BME280;45749;51.140;17.184;2023-03-25T03:16:47;99003.94;;;9.26;82.05
59877;BME280;45749;51.140;17.184;2023-03-25T03:22:00;98995.59;;;9.21;82.12
59877;BME280;45749;51.140;17.184;2023-03-25T03:24:37;98996.56;;;9.20;82.01
59877;BME280;45749;51.140;17.184;2023-03-25T03:27:18;98996.84;;;9.17;82.01
59877;BME280;45749;51.140;17.184;2023-03-25T03:35:17;99001.44;;;9.15;82.06
59877;BME280;45749;51.140;17.184;2023-03-25T03:37:50;99012.06;;;9.13;82.07
59877;BME280;45749;51.140;17.184;2023-03-25T03:40:19;99006.13;;;9.11;82.08
59877;BME280;45749;51.140;17.184;2023-03-25T03:42:53;99017.75;;;9.09;82.13
59877;BME280;45749;51.140;17.184;2023-03-25T03:45:37;99012.75;;;9.06;82.13
59877;BME280;45749;51.140;17.184;2023-03-25T03:48:07;99014.81;;;9.02;82.21
59877;BME280;45749;51.140;17.184;2023-03-25T03:50:39;99016.19;;;8.97;82.05
59877;BME280;45749;51.140;17.184;2023-03-25T03:58:31;99016.97;;;8.87;82.15
59877;BME280;45749;51.140;17.184;2023-03-25T04:01:03;99011.13;;;8.84;82.26
59877;BME280;45749;51.140;17.184;2023-03-25T04:03:45;99023.72;;;8.80;82.45
59877;BME280;45749;51.140;17.184;2023-03-25T04:06:22;99017.91;;;8.77;82.60
59877;BME280;45749;51.140;17.184;2023-03-25T04:08:56;99014.56;;;8.75;82.53
59877;BME280;45749;51.140;17.184;2023-03-25T04:11:28;99009.69;;;8.70;82.65
59877;BME280;45749;51.140;17.184;2023-03-25T04:13:58;99019.50;;;8.68;82.59
59877;BME280;45749;51.140;17.184;2023-03-25T04:16:25;99009.78;;;8.59;82.68
59877;BME280;45749;51.140;17.184;2023-03-25T04:18:50;99012.78;;;8.54;82.96
59877;BME280;45749;51.140;17.184;2023-03-25T04:21:19;99015.81;;;8.50;82.96
59877;BME280;45749;51.140;17.184;2023-03-25T04:23:44;99014.28;;;8.47;83.19
59877;BME280;45749;51.140;17.184;2023-03-25T04:26:11;99015.63;;;8.41;83.10
59877;BME280;45749;51.140;17.184;2023-03-25T04:28:37;99017.91;;;8.35;83.23
59877;BME280;45749;51.140;17.184;2023-03-25T04:31:11;99016.66;;;8.29;83.31
59877;BME280;45749;51.140;17.184;2023-03-25T04:33:40;99021.56;;;8.22;83.50
59877;BME280;45749;51.140;17.184;2023-03-25T04:36:05;99023.59;;;8.19;83.74
59877;BME280;45749;51.140;17.184;2023-03-25T04:38:31;99018.34;;;8.19;83.85
59877;BME280;45749;51.140;17.184;2023-03-25T04:40:56;99012.53;;;8.15;83.80
59877;BME280;45749;51.140;17.184;2023-03-25T04:43:22;99015.41;;;8.12;83.98
59877;BME280;45749;51.140;17.184;2023-03-25T04:45:47;99014.56;;;8.12;84.13
59877;BME280;45749;51.140;17.184;2023-03-25T04:48:28;99023.28;;;8.12;84.15
59877;BME280;45749;51.140;17.184;2023-03-25T04:50:57;99021.63;;;8.11;84.02
59877;BME280;45749;51.140;17.184;2023-03-25T04:53:27;99022.59;;;8.10;84.15
59877;BME280;45749;51.140;17.184;2023-03-25T04:55:53;99027.13;;;8.08;84.04
59877;BME280;45749;51.140;17.184;2023-03-25T04:58:19;99031.81;;;8.05;84.10
59877;BME280;45749;51.140;17.184;2023-03-25T05:00:46;99028.47;;;8.03;84.29
59877;BME280;45749;51.140;17.184;2023-03-25T05:03:13;99037.47;;;8.00;84.41
59877;BME280;45749;51.140;17.184;2023-03-25T05:05:40;99041.41;;;7.94;84.52
59877;BME280;45749;51.140;17.184;2023-03-25T05:08:06;99042.88;;;7.87;84.55
59877;BME280;45749;51.140;17.184;2023-03-25T05:10:32;99037.16;;;7.82;84.75
59877;BME280;45749;51.140;17.184;2023-03-25T05:13:04;99034.09;;;7.77;85.11
59877;BME280;45749;51.140;17.184;2023-03-25T05:15:31;99032.78;;;7.71;85.33
59877;BME280;45749;51.140;17.184;2023-03-25T05:18:00;99031.81;;;7.72;85.45
59877;BME280;45749;51.140;17.184;2023-03-25T05:20:26;99031.97;;;7.71;85.50
59877;BME280;45749;51.140;17.184;2023-03-25T05:22:52;99030.28;;;7.70;85.75
59877;BME280;45749;51.140;17.184;2023-03-25T05:25:21;99025.16;;;7.68;85.90
59877;BME280;45749;51.140;17.184;2023-03-25T05:27:47;99034.81;;;7.68;85.95
59877;BME280;45749;51.140;17.184;2023-03-25T05:30:13;99039.25;;;7.67;86.14
59877;BME280;45749;51.140;17.184;2023-03-25T05:32:40;99022.06;;;7.63;86.27
59877;BME280;45749;51.140;17.184;2023-03-25T05:35:06;99023.75;;;7.64;86.37
59877;BME280;45749;51.140;17.184;2023-03-25T05:37:32;99021.94;;;7.65;86.63
59877;BME280;45749;51.140;17.184;2023-03-25T05:39:57;99025.66;;;7.62;86.56
59877;BME280;45749;51.140;17.184;2023-03-25T05:42:23;99024.09;;;7.60;86.90
59877;BME280;45749;51.140;17.184;2023-03-25T05:44:49;99025.22;;;7.57;87.03
59877;BME280;45749;51.140;17.184;2023-03-25T05:47:23;99026.03;;;7.58;87.27
59877;BME280;45749;51.140;17.184;2023-03-25T05:49:50;99029.50;;;7.58;87.55
59877;BME280;45749;51.140;17.184;2023-03-25T05:52:17;99024.34;;;7.57;87.66
59877;BME280;45749;51.140;17.184;2023-03-25T05:54:44;99032.22;;;7.57;88.02
59877;BME280;45749;51.140;17.184;2023-03-25T05:57:10;99025.22;;;7.57;88.09
59877;BME280;45749;51.140;17.184;2023-03-25T05:59:36;99028.41;;;7.61;88.23
59877;BME280;45749;51.140;17.184;2023-03-25T06:02:04;99038.66;;;7.64;88.23
59877;BME280;45749;51.140;17.184;2023-03-25T06:04:33;99042.56;;;7.69;88.25
59877;BME280;45749;51.140;17.184;2023-03-25T06:07:05;99043.88;;;7.75;88.25
59877;BME280;45749;51.140;17.184;2023-03-25T06:09:34;99045.28;;;7.79;88.49
59877;BME280;45749;51.140;17.184;2023-03-25T06:12:01;99051.00;;;7.84;88.75
59877;BME280;45749;51.140;17.184;2023-03-25T06:14:26;99046.19;;;7.89;88.88
59877;BME280;45749;51.140;17.184;2023-03-25T06:16:52;99052.75;;;7.95;89.12
59877;BME280;45749;51.140;17.184;2023-03-25T06:19:17;99041.88;;;7.99;88.91
59877;BME280;45749;51.140;17.184;2023-03-25T06:21:43;99045.78;;;8.05;88.83
59877;BME280;45749;51.140;17.184;2023-03-25T06:24:08;99041.69;;;8.12;88.71
59877;BME280;45749;51.140;17.184;2023-03-25T06:26:33;99047.16;;;8.20;88.99
59877;BME280;45749;51.140;17.184;2023-03-25T06:28:59;99041.81;;;8.32;89.15
59877;BME280;45749;51.140;17.184;2023-03-25T06:31:25;99040.25;;;8.40;89.65
59877;BME280;45749;51.140;17.184;2023-03-25T06:33:52;99046.00;;;8.55;89.68
59877;BME280;45749;51.140;17.184;2023-03-25T06:36:18;99046.63;;;8.68;89.40
59877;BME280;45749;51.140;17.184;2023-03-25T06:38:48;99046.31;;;8.83;89.56
59877;BME280;45749;51.140;17.184;2023-03-25T06:41:15;99048.72;;;8.96;89.11
59877;BME280;45749;51.140;17.184;2023-03-25T06:43:45;99051.25;;;9.07;88.81
59877;BME280;45749;51.140;17.184;2023-03-25T06:46:11;99038.94;;;9.17;88.49
59877;BME280;45749;51.140;17.184;2023-03-25T06:48:37;99039.81;;;9.27;88.17
59877;BME280;45749;51.140;17.184;2023-03-25T06:51:02;99042.63;;;9.35;88.02
59877;BME280;45749;51.140;17.184;2023-03-25T06:53:28;99041.09;;;9.43;88.23
59877;BME280;45749;51.140;17.184;2023-03-25T06:55:56;99038.63;;;9.51;87.90
59877;BME280;45749;51.140;17.184;2023-03-25T06:58:22;99041.69;;;9.56;87.50
59877;BME280;45749;51.140;17.184;2023-03-25T07:00:52;99025.34;;;9.62;87.72
59877;BME280;45749;51.140;17.184;2023-03-25T07:03:18;99023.13;;;9.67;87.77
59877;BME280;45749;51.140;17.184;2023-03-25T07:05:43;99014.81;;;9.72;87.77
59877;BME280;45749;51.140;17.184;2023-03-25T07:08:09;99010.66;;;9.79;87.71
59877;BME280;45749;51.140;17.184;2023-03-25T07:10:34;99017.19;;;9.84;87.98
59877;BME280;45749;51.140;17.184;2023-03-25T07:12:59;99021.03;;;9.90;87.80
59877;BME280;45749;51.140;17.184;2023-03-25T07:15:25;99031.31;;;9.93;87.36
59877;BME280;45749;51.140;17.184;2023-03-25T07:17:51;99034.50;;;9.97;86.90
59877;BME280;45749;51.140;17.184;2023-03-25T07:20:17;99030.75;;;9.99;86.83
59877;BME280;45749;51.140;17.184;2023-03-25T07:22:42;99027.84;;;10.02;86.86
59877;BME280;45749;51.140;17.184;2023-03-25T07:25:08;99038.94;;;10.06;86.96
59877;BME280;45749;51.140;17.184;2023-03-25T07:27:33;99024.50;;;10.10;87.18
59877;BME280;45749;51.140;17.184;2023-03-25T07:29:59;99024.22;;;10.13;87.34
59877;BME280;45749;51.140;17.184;2023-03-25T07:32:24;99034.50;;;10.16;87.64
59877;BME280;45749;51.140;17.184;2023-03-25T07:34:50;99033.38;;;10.19;87.67
59877;BME280;45749;51.140;17.184;2023-03-25T07:37:15;99026.03;;;10.22;87.53
59877;BME280;45749;51.140;17.184;2023-03-25T07:39:41;99024.09;;;10.24;87.58
59877;BME280;45749;51.140;17.184;2023-03-25T07:42:06;99031.75;;;10.27;87.73
59877;BME280;45749;51.140;17.184;2023-03-25T07:44:31;99038.41;;;10.31;87.56
59877;BME280;45749;51.140;17.184;2023-03-25T07:46:57;99043.41;;;10.35;87.67
59877;BME280;45749;51.140;17.184;2023-03-25T07:49:23;99035.63;;;10.33;87.38
59877;BME280;45749;51.140;17.184;2023-03-25T07:51:48;99043.78;;;10.40;87.21
59877;BME280;45749;51.140;17.184;2023-03-25T07:54:14;99029.50;;;10.42;87.13
59877;BME280;45749;51.140;17.184;2023-03-25T07:56:39;99036.19;;;10.46;87.27
59877;BME280;45749;51.140;17.184;2023-03-25T07:59:06;99031.44;;;10.50;86.85
59877;BME280;45749;51.140;17.184;2023-03-25T08:01:31;99031.16;;;10.53;86.92
59877;BME280;45749;51.140;17.184;2023-03-25T08:03:57;99028.22;;;10.56;86.56
59877;BME280;45749;51.140;17.184;2023-03-25T08:06:22;99029.63;;;10.60;86.64
59877;BME280;45749;51.140;17.184;2023-03-25T08:08:48;99030.16;;;10.64;86.06
59877;BME280;45749;51.140;17.184;2023-03-25T08:11:13;99033.34;;;10.67;86.27
59877;BME280;45749;51.140;17.184;2023-03-25T08:13:39;99026.78;;;10.71;85.91
59877;BME280;45749;51.140;17.184;2023-03-25T08:16:13;99025.53;;;10.75;86.12
59877;BME280;45749;51.140;17.184;2023-03-25T08:18:39;99031.91;;;10.83;86.04
59877;BME280;45749;51.140;17.184;2023-03-25T08:21:09;99038.56;;;10.87;85.65
59877;BME280;45749;51.140;17.184;2023-03-25T08:23:35;99036.44;;;10.90;85.29
59877;BME280;45749;51.140;17.184;2023-03-25T08:26:02;99035.34;;;10.93;84.90
59877;BME280;45749;51.140;17.184;2023-03-25T08:28:30;99035.06;;;10.96;85.17
59877;BME280;45749;51.140;17.184;2023-03-25T08:30:55;99037.94;;;11.02;84.91
59877;BME280;45749;51.140;17.184;2023-03-25T08:33:23;99038.84;;;11.11;85.25
59877;BME280;45749;51.140;17.184;2023-03-25T08:35:51;99038.00;;;11.20;85.14
59877;BME280;45749;51.140;17.184;2023-03-25T08:38:16;99036.53;;;11.36;85.64
59877;BME280;45749;51.140;17.184;2023-03-25T08:40:42;99030.72;;;11.50;85.06
59877;BME280;45749;51.140;17.184;2023-03-25T08:43:09;99033.00;;;11.63;84.36
59877;BME280;45749;51.140;17.184;2023-03-25T08:45:34;99024.03;;;11.73;84.18
59877;BME280;45749;51.140;17.184;2023-03-25T08:48:01;99029.16;;;11.85;84.03
59877;BME280;45749;51.140;17.184;2023-03-25T08:50:27;99027.38;;;11.93;82.26
59877;BME280;45749;51.140;17.184;2023-03-25T08:52:53;99023.31;;;11.99;82.03
59877;BME280;45749;51.140;17.184;2023-03-25T08:55:22;99024.66;;;12.03;81.78
59877;BME280;45749;51.140;17.184;2023-03-25T08:57:47;99028.34;;;12.10;81.93
59877;BME280;45749;51.140;17.184;2023-03-25T09:00:13;99025.41;;;12.13;80.54
59877;BME280;45749;51.140;17.184;2023-03-25T09:02:39;99019.16;;;12.14;81.10
59877;BME280;45749;51.140;17.184;2023-03-25T09:05:07;99017.16;;;12.16;78.75
59877;BME280;45749;51.140;17.184;2023-03-25T09:07:32;99021.63;;;12.16;79.54
59877;BME280;45749;51.140;17.184;2023-03-25T09:09:58;99019.28;;;12.13;77.66
59877;BME280;45749;51.140;17.184;2023-03-25T09:12:23;99012.50;;;12.10;77.68
59877;BME280;45749;51.140;17.184;2023-03-25T09:14:49;99015.44;;;12.07;77.74
59877;BME280;45749;51.140;17.184;2023-03-25T09:17:14;99013.09;;;12.04;77.59
59877;BME280;45749;51.140;17.184;2023-03-25T09:19:40;99013.09;;;12.04;77.35
59877;BME280;45749;51.140;17.184;2023-03-25T09:22:05;99009.50;;;12.05;77.68
59877;BME280;45749;51.140;17.184;2023-03-25T09:24:31;99011.16;;;12.06;76.80
59877;BME280;45749;51.140;17.184;2023-03-25T09:26:59;99023.53;;;12.06;75.55
59877;BME280;45749;51.140;17.184;2023-03-25T09:29:26;99018.09;;;12.07;76.21
59877;BME280;45749;51.140;17.184;2023-03-25T09:31:52;99023.38;;;12.07;75.65
59877;BME280;45749;51.140;17.184;2023-03-25T09:34:17;99018.09;;;12.07;76.06
59877;BME280;45749;51.140;17.184;2023-03-25T09:36:43;99024.38;;;12.06;75.50
59877;BME280;45749;51.140;17.184;2023-03-25T09:39:10;99016.44;;;12.06;75.50
59877;BME280;45749;51.140;17.184;2023-03-25T09:44:36;99021.25;;;12.11;75.79
59877;BME280;45749;51.140;17.184;2023-03-25T09:47:10;99020.13;;;12.13;74.94
59877;BME280;45749;51.140;17.184;2023-03-25T09:49:39;99021.50;;;12.17;75.96
59877;BME280;45749;51.140;17.184;2023-03-25T09:52:14;99025.50;;;12.22;76.24
59877;BME280;45749;51.140;17.184;2023-03-25T09:54:47;99026.53;;;12.29;75.61
59877;BME280;45749;51.140;17.184;2023-03-25T09:57:19;99021.59;;;12.34;75.23
59877;BME280;45749;51.140;17.184;2023-03-25T09:59:48;99022.97;;;12.38;74.93
59877;BME280;45749;51.140;17.184;2023-03-25T10:02:39;99024.13;;;12.43;73.43
59877;BME280;45749;51.140;17.184;2023-03-25T10:11:05;99015.44;;;12.51;71.45
59877;BME280;45749;51.140;17.184;2023-03-25T10:13:54;99015.59;;;12.50;70.43
59877;BME280;45749;51.140;17.184;2023-03-25T10:21:49;99010.81;;;12.53;71.16
59877;BME280;45749;51.140;17.184;2023-03-25T10:24:35;99007.34;;;12.53;71.60
59877;BME280;45749;51.140;17.184;2023-03-25T10:27:23;99001.91;;;12.54;70.38
59877;BME280;45749;51.140;17.184;2023-03-25T10:30:21;99001.75;;;12.56;70.90
59877;BME280;45749;51.140;17.184;2023-03-25T10:33:06;99003.38;;;12.57;70.29
59877;BME280;45749;51.140;17.184;2023-03-25T10:35:39;98996.81;;;12.61;71.20
59877;BME280;45749;51.140;17.184;2023-03-25T10:38:20;98997.16;;;12.66;71.01
59877;BME280;45749;51.140;17.184;2023-03-25T10:40:50;98993.25;;;12.70;70.94
59877;BME280;45749;51.140;17.184;2023-03-25T10:45:44;98996.81;;;12.87;70.92
59877;BME280;45749;51.140;17.184;2023-03-25T10:50:40;99009.53;;;13.26;69.02
59877;BME280;45749;51.140;17.184;2023-03-25T10:53:15;98991.38;;;13.39;69.43
59877;BME280;45749;51.140;17.184;2023-03-25T10:55:44;98987.25;;;13.45;68.33
59877;BME280;45749;51.140;17.184;2023-03-25T10:58:15;98992.56;;;13.45;68.67
59877;BME280;45749;51.140;17.184;2023-03-25T11:00:41;98985.75;;;13.42;69.08
59877;BME280;45749;51.140;17.184;2023-03-25T11:03:19;98990.91;;;13.44;68.16
59877;BME280;45749;51.140;17.184;2023-03-25T11:05:47;98968.72;;;13.53;67.36
59877;BME280;45749;51.140;17.184;2023-03-25T11:08:13;98973.03;;;13.62;67.29
59877;BME280;45749;51.140;17.184;2023-03-25T11:10:39;98971.88;;;13.65;67.29
59877;BME280;45749;51.140;17.184;2023-03-25T11:13:11;98975.34;;;13.65;66.05
59877;BME280;45749;51.140;17.184;2023-03-25T11:15:38;98980.81;;;13.72;66.69
59877;BME280;45749;51.140;17.184;2023-03-25T11:20:45;98954.97;;;13.98;66.03
59877;BME280;45749;51.140;17.184;2023-03-25T11:23:48;98950.53;;;14.15;66.16
59877;BME280;45749;51.140;17.184;2023-03-25T11:26:18;98953.63;;;14.35;63.65
59877;BME280;45749;51.140;17.184;2023-03-25T11:28:52;98937.72;;;14.51;63.74
59877;BME280;45749;51.140;17.184;2023-03-25T11:31:20;98940.31;;;14.68;63.12
59877;BME280;45749;51.140;17.184;2023-03-25T11:34:23;98929.31;;;14.79;64.33
59877;BME280;45749;51.140;17.184;2023-03-25T11:36:59;98945.03;;;14.89;62.53
59877;BME280;45749;51.140;17.184;2023-03-25T11:39:33;98942.41;;;14.81;62.14
59877;BME280;45749;51.140;17.184;2023-03-25T11:42:30;98941.13;;;14.68;60.89
59877;BME280;45749;51.140;17.184;2023-03-25T11:44:55;98952.94;;;14.58;61.57
59877;BME280;45749;51.140;17.184;2023-03-25T11:47:41;98936.19;;;14.49;60.34
59877;BME280;45749;51.140;17.184;2023-03-25T11:50:21;98933.38;;;14.42;61.68
59877;BME280;45749;51.140;17.184;2023-03-25T11:52:50;98932.38;;;14.43;61.17
59877;BME280;45749;51.140;17.184;2023-03-25T11:55:27;98935.38;;;14.40;61.81
59877;BME280;45749;51.140;17.184;2023-03-25T11:57:55;98945.50;;;14.45;61.85
59877;BME280;45749;51.140;17.184;2023-03-25T12:00:36;98942.50;;;14.56;62.39
59877;BME280;45749;51.140;17.184;2023-03-25T12:05:28;98949.75;;;14.70;60.10
59877;BME280;45749;51.140;17.184;2023-03-25T12:08:03;98938.97;;;14.64;60.78
59877;BME280;45749;51.140;17.184;2023-03-25T12:16:11;98940.38;;;14.35;60.19
59877;BME280;45749;51.140;17.184;2023-03-25T12:18:44;98943.69;;;14.29;60.26
59877;BME280;45749;51.140;17.184;2023-03-25T12:21:31;98948.34;;;14.19;59.11
59877;BME280;45749;51.140;17.184;2023-03-25T12:26:37;98951.84;;;13.95;58.21
59877;BME280;45749;51.140;17.184;2023-03-25T12:32:30;98983.13;;;13.58;60.47
59877;BME280;45749;51.140;17.184;2023-03-25T12:35:22;98999.13;;;13.32;61.11
59877;BME280;45749;51.140;17.184;2023-03-25T12:43:04;99025.31;;;12.67;62.27
59877;BME280;45749;51.140;17.184;2023-03-25T13:04:22;99037.28;;;11.18;71.82
59877;BME280;45749;51.140;17.184;2023-03-25T13:06:58;99026.94;;;11.07;73.72
59877;BME280;45749;51.140;17.184;2023-03-25T13:09:36;99032.09;;;10.99;74.01
59877;BME280;45749;51.140;17.184;2023-03-25T13:12:08;99020.75;;;10.89;75.04
59877;BME280;45749;51.140;17.184;2023-03-25T13:14:40;99021.28;;;10.92;75.85
59877;BME280;45749;51.140;17.184;2023-03-25T13:17:17;99022.53;;;10.98;77.22
59877;BME280;45749;51.140;17.184;2023-03-25T13:19:46;99014.28;;;11.11;76.73
59877;BME280;45749;51.140;17.184;2023-03-25T13:22:17;99015.59;;;11.24;77.04
59877;BME280;45749;51.140;17.184;2023-03-25T13:24:52;99008.72;;;11.32;76.46
59877;BME280;45749;51.140;17.184;2023-03-25T13:27:19;99003.69;;;11.38;76.40
59877;BME280;45749;51.140;17.184;2023-03-25T13:29:48;99011.53;;;11.48;76.77
59877;BME280;45749;51.140;17.184;2023-03-25T13:32:22;98997.44;;;11.57;76.83
59877;BME280;45749;51.140;17.184;2023-03-25T13:34:59;98998.00;;;11.79;76.36
59877;BME280;45749;51.140;17.184;2023-03-25T13:37:38;98989.56;;;11.93;73.91
59877;BME280;45749;51.140;17.184;2023-03-25T13:40:25;98992.50;;;11.90;71.78
59877;BME280;45749;51.140;17.184;2023-03-25T13:45:43;98991.66;;;11.71;71.17
59877;BME280;45749;51.140;17.184;2023-03-25T13:48:15;98999.81;;;11.78;70.72
59877;BME280;45749;51.140;17.184;2023-03-25T13:50:42;98984.31;;;11.83;70.61
59877;BME280;45749;51.140;17.184;2023-03-25T13:53:14;98996.19;;;11.97;70.98
59877;BME280;45749;51.140;17.184;2023-03-25T13:55:57;98988.34;;;12.05;69.42
59877;BME280;45749;51.140;17.184;2023-03-25T14:07:26;98986.38;;;11.71;70.06
59877;BME280;45749;51.140;17.184;2023-03-25T14:10:01;98987.63;;;11.67;69.70
59877;BME280;45749;51.140;17.184;2023-03-25T14:12:55;98985.59;;;11.61;70.00
59877;BME280;45749;51.140;17.184;2023-03-25T14:15:30;98995.78;;;11.56;69.68
59877;BME280;45749;51.140;17.184;2023-03-25T14:17:58;98984.31;;;11.47;70.19
59877;BME280;45749;51.140;17.184;2023-03-25T14:20:28;98982.72;;;11.55;70.41
59877;BME280;45749;51.140;17.184;2023-03-25T14:22:58;98977.38;;;11.64;70.50
59877;BME280;45749;51.140;17.184;2023-03-25T14:27:53;98965.81;;;11.83;71.43
59877;BME280;45749;51.140;17.184;2023-03-25T14:30:26;98973.09;;;11.99;69.31
59877;BME280;45749;51.140;17.184;2023-03-25T14:32:56;98968.84;;;12.06;69.44
59877;BME280;45749;51.140;17.184;2023-03-25T14:43:02;98966.63;;;12.46;68.26
59877;BME280;45749;51.140;17.184;2023-03-25T14:48:04;98978.84;;;12.47;67.81
59877;BME280;45749;51.140;17.184;2023-03-25T14:50:34;98987.44;;;12.40;68.10
59877;BME280;45749;51.140;17.184;2023-03-25T14:53:03;98979.28;;;12.34;68.17
59877;BME280;45749;51.140;17.184;2023-03-25T14:55:31;98988.19;;;12.33;67.92
59877;BME280;45749;51.140;17.184;2023-03-25T14:58:18;98984.34;;;12.27;67.89
59877;BME280;45749;51.140;17.184;2023-03-25T15:00:58;98984.81;;;12.23;67.88
59877;BME280;45749;51.140;17.184;2023-03-25T15:03:38;98975.16;;;12.13;67.61
59877;BME280;45749;51.140;17.184;2023-03-25T15:06:07;98977.47;;;12.08;67.33
59877;BME280;45749;51.140;17.184;2023-03-25T15:08:39;98980.53;;;12.04;67.56
59877;BME280;45749;51.140;17.184;2023-03-25T15:11:07;98994.22;;;11.99;67.70